Stilwell, Kansas
Current Conditions -  °F | °C
As of 8:53 PM on Tuesday 25 Nov 2014 (Local Time) from KOJC Reporting Station
Few Clouds Few Clouds  
Wind Chill: 29°   Ceiling: Unl
Heat Index: 35°   Visibility: 10mi
Dew Point: 22°   Wind: 8mph
Humidity: 59%   Direction: 180°S
Pressure: 30.04"   Gusts: NA
Location:  38.77°N, 94.66°W
Report Text: KOJC 260253Z 18007KT 10SM FEW120 02/M06 A3004 RMK AO2 SLP183 T00171056 58008
Loading
Personal Weather Stations






























Interactive Weather Map New forecast layout! Learn more

10-Day Weather Forecast

Advertisements
Track Severe Weather on mobile